IBE311 LEMD-MMMX
Flight info
| Callsign | IBE311 |
|---|---|
| Flight time | N/A |
| Altitude | 36000 |
| Route | ZMR N733 DESAT DCT STG DCT KOPAS/M084F360 DCT 44N020W 44N030W 44N040W 43N050W DCT SOORY M204 SUMRS/N0491F360 A699 PBI DCT MARCI M580 IRDOV UM580 TADET UT154 ENAGA ENAGA3A |
| Aircraft | A359/H-SDE2E3GHIJ3J4J5LM1ORWXY/LB1D1 |
Departure
| Time | 2026-05-07 16:55 |
|---|---|
| Airport | Adolfo Suárez Madrid–Barajas Airport (LEMD) |
Arrival
| Time | N/A |
|---|---|
| Airport | Mexico City Benito Juárez International Airport (MMMX) |
| Time | Latitude | Longitude | Altitude | Speed | Heading |
|---|---|---|---|---|---|
| 2026-05-07 16:36 | 40.49660 | -3.56888 | 1989 ft | 0 kts | 90° |
| 2026-05-07 16:44 | 40.49660 | -3.56894 | 1986 ft | 3 kts | 91° |
| 2026-05-07 16:44 | 40.49662 | -3.56928 | 1985 ft | 4 kts | 100° |
| 2026-05-07 16:44 | 40.49669 | -3.56963 | 1985 ft | 4 kts | 112° |
| 2026-05-07 16:45 | 40.49682 | -3.56993 | 1988 ft | 4 kts | 134° |
| 2026-05-07 16:45 | 40.49702 | -3.57010 | 1985 ft | 2 kts | 177° |
| 2026-05-07 16:45 | 40.49704 | -3.57010 | 1985 ft | 0 kts | 179° |
| 2026-05-07 16:48 | 40.49693 | -3.57010 | 1986 ft | 5 kts | 178° |
| 2026-05-07 16:48 | 40.49653 | -3.57007 | 1988 ft | 9 kts | 179° |
| 2026-05-07 16:48 | 40.49562 | -3.57006 | 1988 ft | 14 kts | 179° |
| 2026-05-07 16:48 | 40.49467 | -3.57006 | 1990 ft | 14 kts | 180° |
| 2026-05-07 16:49 | 40.49386 | -3.57008 | 1986 ft | 0 kts | 180° |
| 2026-05-07 16:49 | 40.49378 | -3.57008 | 1986 ft | 5 kts | 180° |
| 2026-05-07 16:49 | 40.49322 | -3.57017 | 1988 ft | 9 kts | 202° |
| 2026-05-07 16:50 | 40.49289 | -3.57079 | 1989 ft | 9 kts | 244° |
| 2026-05-07 16:50 | 40.49243 | -3.57120 | 1990 ft | 10 kts | 187° |
| 2026-05-07 16:50 | 40.49151 | -3.57124 | 1989 ft | 14 kts | 181° |
| 2026-05-07 16:50 | 40.49051 | -3.57126 | 1988 ft | 14 kts | 181° |
| 2026-05-07 16:51 | 40.48950 | -3.57126 | 1989 ft | 14 kts | 178° |
| 2026-05-07 16:51 | 40.48873 | -3.57155 | 1991 ft | 11 kts | 230° |
| 2026-05-07 16:51 | 40.48829 | -3.57230 | 1991 ft | 9 kts | 223° |
| 2026-05-07 16:51 | 40.48771 | -3.57241 | 1989 ft | 11 kts | 179° |
| 2026-05-07 16:52 | 40.48697 | -3.57263 | 1989 ft | 11 kts | 218° |
| 2026-05-07 16:52 | 40.48648 | -3.57342 | 1989 ft | 11 kts | 231° |
| 2026-05-07 16:52 | 40.48598 | -3.57425 | 1990 ft | 11 kts | 232° |
| 2026-05-07 16:52 | 40.48591 | -3.57438 | 1991 ft | 0 kts | 232° |
| 2026-05-07 16:53 | 40.48582 | -3.57453 | 1990 ft | 4 kts | 232° |
| 2026-05-07 16:53 | 40.48564 | -3.57485 | 1990 ft | 5 kts | 233° |
| 2026-05-07 16:53 | 40.48522 | -3.57541 | 1990 ft | 10 kts | 211° |
| 2026-05-07 16:54 | 40.48457 | -3.57549 | 1990 ft | 9 kts | 167° |
| 2026-05-07 16:54 | 40.48407 | -3.57518 | 1989 ft | 0 kts | 145° |
| 2026-05-07 16:54 | 40.48396 | -3.57507 | 1990 ft | 10 kts | 144° |
| 2026-05-07 16:54 | 40.48197 | -3.57308 | 1990 ft | 63 kts | 142° |
| 2026-05-07 16:55 | 40.47716 | -3.56818 | 1991 ft | 110 kts | 142° |
| 2026-05-07 16:55 | 40.47000 | -3.56088 | 1991 ft | 150 kts | 142° |
| 2026-05-07 16:55 | 40.46110 | -3.55184 | 2264 ft | 160 kts | 143° |
| 2026-05-07 16:55 | 40.45245 | -3.54320 | 2691 ft | 160 kts | 143° |
| 2026-05-07 16:56 | 40.44311 | -3.53423 | 2934 ft | 172 kts | 144° |
| 2026-05-07 16:56 | 40.43289 | -3.52456 | 3195 ft | 189 kts | 143° |
| 2026-05-07 16:56 | 40.41041 | -3.50175 | 3810 ft | 220 kts | 142° |
| 2026-05-07 16:57 | 40.39800 | -3.48905 | 4038 ft | 229 kts | 142° |
| 2026-05-07 16:57 | 40.38536 | -3.47614 | 4344 ft | 231 kts | 143° |
| 2026-05-07 16:57 | 40.37261 | -3.46316 | 4697 ft | 231 kts | 143° |
| 2026-05-07 16:57 | 40.35991 | -3.45023 | 5045 ft | 230 kts | 143° |
| 2026-05-07 16:58 | 40.34719 | -3.43729 | 5407 ft | 232 kts | 144° |
| 2026-05-07 16:58 | 40.33445 | -3.42435 | 5804 ft | 231 kts | 144° |
| 2026-05-07 16:58 | 40.32188 | -3.41158 | 6215 ft | 232 kts | 143° |
| 2026-05-07 16:58 | 40.30903 | -3.39852 | 6608 ft | 235 kts | 143° |
| 2026-05-07 16:59 | 40.29566 | -3.38592 | 6993 ft | 236 kts | 153° |
| 2026-05-07 16:59 | 40.28013 | -3.37983 | 7391 ft | 234 kts | 180° |
| 2026-05-07 16:59 | 40.26426 | -3.38404 | 7793 ft | 240 kts | 202° |
| 2026-05-07 16:59 | 40.24861 | -3.39305 | 8208 ft | 251 kts | 206° |
| 2026-05-07 17:00 | 40.23315 | -3.40253 | 8614 ft | 260 kts | 206° |
| 2026-05-07 17:00 | 40.21752 | -3.41471 | 9038 ft | 262 kts | 220° |
| 2026-05-07 17:00 | 40.20623 | -3.43336 | 9470 ft | 262 kts | 244° |
| 2026-05-07 17:00 | 40.20192 | -3.45682 | 9890 ft | 273 kts | 268° |
| 2026-05-07 17:01 | 40.20410 | -3.48162 | 10226 ft | 285 kts | 279° |
| 2026-05-07 17:01 | 40.20818 | -3.50784 | 10508 ft | 302 kts | 280° |
| 2026-05-07 17:01 | 40.21253 | -3.53544 | 10795 ft | 317 kts | 280° |
| 2026-05-07 17:01 | 40.21697 | -3.56445 | 11087 ft | 332 kts | 279° |
| 2026-05-07 17:02 | 40.22151 | -3.59482 | 11377 ft | 346 kts | 279° |
| 2026-05-07 17:02 | 40.22612 | -3.62605 | 11804 ft | 354 kts | 279° |
| 2026-05-07 17:02 | 40.23083 | -3.65810 | 12364 ft | 359 kts | 279° |
| 2026-05-07 17:02 | 40.23548 | -3.68994 | 12953 ft | 363 kts | 279° |
| 2026-05-07 17:03 | 40.24023 | -3.72259 | 13547 ft | 366 kts | 279° |
| 2026-05-07 17:03 | 40.24503 | -3.75560 | 14089 ft | 370 kts | 279° |
| 2026-05-07 17:03 | 40.24984 | -3.78886 | 14611 ft | 373 kts | 279° |
| 2026-05-07 17:03 | 40.25467 | -3.82229 | 15162 ft | 375 kts | 279° |
| 2026-05-07 17:04 | 40.25952 | -3.85604 | 15651 ft | 379 kts | 279° |
| 2026-05-07 17:04 | 40.26443 | -3.89020 | 16191 ft | 382 kts | 279° |
| 2026-05-07 17:04 | 40.26930 | -3.92411 | 16771 ft | 383 kts | 279° |
| 2026-05-07 17:04 | 40.27424 | -3.95862 | 17287 ft | 386 kts | 279° |
| 2026-05-07 17:05 | 40.27920 | -3.99330 | 17877 ft | 388 kts | 279° |
| 2026-05-07 17:05 | 40.28416 | -4.02815 | 18381 ft | 390 kts | 279° |
| 2026-05-07 17:05 | 40.28912 | -4.06306 | 18822 ft | 394 kts | 280° |
| 2026-05-07 17:05 | 40.29413 | -4.09840 | 19358 ft | 395 kts | 280° |
| 2026-05-07 17:06 | 40.30002 | -4.13398 | 19839 ft | 399 kts | 286° |
| 2026-05-07 17:06 | 40.31140 | -4.16666 | 20329 ft | 402 kts | 303° |
| 2026-05-07 17:06 | 40.32985 | -4.19448 | 20864 ft | 406 kts | 316° |
| 2026-05-07 17:06 | 40.35085 | -4.21937 | 21365 ft | 408 kts | 317° |
| 2026-05-07 17:07 | 40.37224 | -4.24417 | 21876 ft | 410 kts | 317° |
| 2026-05-07 17:07 | 40.39368 | -4.26914 | 22370 ft | 412 kts | 317° |
| 2026-05-07 17:07 | 40.41518 | -4.29430 | 22818 ft | 417 kts | 316° |
| 2026-05-07 17:07 | 40.43692 | -4.31984 | 23256 ft | 420 kts | 316° |
| 2026-05-07 17:08 | 40.45851 | -4.34527 | 23728 ft | 421 kts | 316° |
| 2026-05-07 17:08 | 40.48046 | -4.37116 | 24165 ft | 422 kts | 316° |
| 2026-05-07 17:08 | 40.50235 | -4.39699 | 24682 ft | 421 kts | 316° |
| 2026-05-07 17:08 | 40.52389 | -4.42246 | 25177 ft | 420 kts | 316° |
| 2026-05-07 17:09 | 40.54563 | -4.44819 | 25700 ft | 419 kts | 316° |
| 2026-05-07 17:09 | 40.56735 | -4.47393 | 26191 ft | 419 kts | 316° |
| 2026-05-07 17:09 | 40.58884 | -4.49941 | 26633 ft | 419 kts | 316° |
| 2026-05-07 17:09 | 40.61058 | -4.52521 | 27095 ft | 419 kts | 316° |
| 2026-05-07 17:10 | 40.63225 | -4.55095 | 27557 ft | 419 kts | 316° |
| 2026-05-07 17:10 | 40.64669 | -4.56813 | 27863 ft | 419 kts | 316° |
| 2026-05-07 17:10 | 40.66832 | -4.59386 | 28363 ft | 418 kts | 316° |
| 2026-05-07 17:10 | 40.69687 | -4.62787 | 29021 ft | 417 kts | 316° |
| 2026-05-07 17:11 | 40.71146 | -4.64527 | 29274 ft | 417 kts | 316° |
| 2026-05-07 17:11 | 40.73278 | -4.67072 | 29635 ft | 419 kts | 316° |
| 2026-05-07 17:11 | 40.75453 | -4.69669 | 30008 ft | 420 kts | 315° |
| 2026-05-07 17:11 | 40.77623 | -4.72263 | 30281 ft | 421 kts | 315° |
| 2026-05-07 17:12 | 40.79771 | -4.74833 | 30534 ft | 422 kts | 315° |
| 2026-05-07 17:12 | 40.81954 | -4.77448 | 30801 ft | 424 kts | 315° |
| 2026-05-07 17:12 | 40.84153 | -4.80084 | 30952 ft | 428 kts | 315° |
| 2026-05-07 17:12 | 40.86358 | -4.82730 | 31209 ft | 429 kts | 315° |
| 2026-05-07 17:13 | 40.88569 | -4.85385 | 31478 ft | 429 kts | 315° |
| 2026-05-07 17:13 | 40.90784 | -4.88047 | 31713 ft | 430 kts | 315° |
| 2026-05-07 17:13 | 40.92999 | -4.90711 | 32029 ft | 428 kts | 315° |
| 2026-05-07 17:13 | 40.95173 | -4.93328 | 32385 ft | 426 kts | 314° |
| 2026-05-07 17:14 | 40.97363 | -4.95967 | 32712 ft | 424 kts | 314° |
| 2026-05-07 17:14 | 40.99544 | -4.98598 | 33025 ft | 423 kts | 314° |
| 2026-05-07 17:14 | 41.01718 | -5.01223 | 33362 ft | 421 kts | 314° |
| 2026-05-07 17:14 | 41.03889 | -5.03848 | 33640 ft | 421 kts | 314° |
| 2026-05-07 17:15 | 41.06029 | -5.06437 | 33873 ft | 420 kts | 314° |
| 2026-05-07 17:15 | 41.08191 | -5.09055 | 34087 ft | 420 kts | 314° |
| 2026-05-07 17:15 | 41.10351 | -5.11673 | 34230 ft | 421 kts | 314° |
| 2026-05-07 17:15 | 41.12517 | -5.14302 | 34363 ft | 422 kts | 314° |
| 2026-05-07 17:16 | 41.14690 | -5.16941 | 34500 ft | 423 kts | 314° |
| 2026-05-07 17:16 | 41.16840 | -5.19555 | 34655 ft | 424 kts | 314° |
| 2026-05-07 17:16 | 41.19019 | -5.22206 | 34800 ft | 424 kts | 314° |
| 2026-05-07 17:16 | 41.21198 | -5.24859 | 34912 ft | 425 kts | 314° |
| 2026-05-07 17:17 | 41.23392 | -5.27534 | 35080 ft | 426 kts | 314° |
| 2026-05-07 17:17 | 41.25589 | -5.30216 | 35074 ft | 430 kts | 314° |
| 2026-05-07 17:17 | 41.27800 | -5.32917 | 35192 ft | 431 kts | 314° |
| 2026-05-07 17:17 | 41.29972 | -5.35570 | 35388 ft | 429 kts | 314° |
| 2026-05-07 17:18 | 41.32171 | -5.38260 | 35566 ft | 429 kts | 314° |
| 2026-05-07 17:18 | 41.34376 | -5.40962 | 35664 ft | 430 kts | 314° |
| 2026-05-07 17:18 | 41.36582 | -5.43667 | 35786 ft | 431 kts | 314° |
| 2026-05-07 17:18 | 41.38796 | -5.46385 | 35871 ft | 432 kts | 314° |
| 2026-05-07 17:19 | 41.43247 | -5.51857 | 35899 ft | 438 kts | 314° |
| 2026-05-07 17:19 | 41.47727 | -5.57372 | 35881 ft | 439 kts | 314° |
| 2026-05-07 17:20 | 41.52148 | -5.62936 | 35879 ft | 438 kts | 310° |
| 2026-05-07 17:20 | 41.55944 | -5.69253 | 35869 ft | 435 kts | 304° |
| 2026-05-07 17:21 | 41.59418 | -5.75870 | 35869 ft | 433 kts | 302° |
| 2026-05-07 17:21 | 41.62813 | -5.82482 | 35875 ft | 433 kts | 302° |
| 2026-05-07 17:22 | 41.66257 | -5.89147 | 35869 ft | 435 kts | 303° |
| 2026-05-07 17:22 | 41.69705 | -5.95786 | 35861 ft | 436 kts | 303° |
| 2026-05-07 17:23 | 41.73176 | -6.02470 | 35861 ft | 435 kts | 303° |
| 2026-05-07 17:23 | 41.76613 | -6.09102 | 35847 ft | 435 kts | 302° |
| 2026-05-07 17:24 | 41.80071 | -6.15791 | 35860 ft | 435 kts | 302° |
| 2026-05-07 17:24 | 41.83512 | -6.22465 | 35862 ft | 436 kts | 302° |
| 2026-05-07 17:25 | 41.86951 | -6.29153 | 35854 ft | 437 kts | 302° |
| 2026-05-07 17:25 | 41.90412 | -6.35900 | 35853 ft | 437 kts | 302° |
| 2026-05-07 17:26 | 41.93846 | -6.42608 | 35852 ft | 437 kts | 302° |
| 2026-05-07 17:26 | 41.97298 | -6.49365 | 35852 ft | 437 kts | 302° |
| 2026-05-07 17:27 | 42.00723 | -6.56086 | 35849 ft | 437 kts | 302° |
| 2026-05-07 17:27 | 42.04157 | -6.62841 | 35853 ft | 437 kts | 302° |
| 2026-05-07 17:28 | 42.07580 | -6.69588 | 35856 ft | 437 kts | 302° |
| 2026-05-07 17:28 | 42.11011 | -6.76365 | 35854 ft | 437 kts | 302° |
| 2026-05-07 17:29 | 42.14420 | -6.83115 | 35853 ft | 437 kts | 302° |
| 2026-05-07 17:29 | 42.17848 | -6.89916 | 35855 ft | 438 kts | 302° |
| 2026-05-07 17:30 | 42.21283 | -6.96748 | 35865 ft | 439 kts | 302° |
| 2026-05-07 17:30 | 42.24711 | -7.03581 | 35861 ft | 439 kts | 302° |
| 2026-05-07 17:31 | 42.28126 | -7.10404 | 35860 ft | 439 kts | 301° |
| 2026-05-07 17:31 | 42.31526 | -7.17211 | 35865 ft | 439 kts | 301° |
| 2026-05-07 17:32 | 42.34945 | -7.24073 | 35861 ft | 439 kts | 301° |
| 2026-05-07 17:32 | 42.38366 | -7.30955 | 35886 ft | 440 kts | 301° |
| 2026-05-07 17:33 | 42.41763 | -7.37801 | 35872 ft | 441 kts | 301° |
| 2026-05-07 17:33 | 42.45188 | -7.44721 | 35872 ft | 441 kts | 301° |
| 2026-05-07 17:34 | 42.48583 | -7.51598 | 35873 ft | 441 kts | 301° |
| 2026-05-07 17:34 | 42.51996 | -7.58526 | 35871 ft | 441 kts | 301° |
| 2026-05-07 17:35 | 42.55384 | -7.65420 | 35869 ft | 443 kts | 301° |
| 2026-05-07 17:35 | 42.58815 | -7.72418 | 35872 ft | 444 kts | 301° |
| 2026-05-07 17:36 | 42.62223 | -7.79383 | 35876 ft | 445 kts | 301° |
| 2026-05-07 17:36 | 42.65652 | -7.86411 | 35877 ft | 450 kts | 301° |
| 2026-05-07 17:37 | 42.69132 | -7.93559 | 35876 ft | 454 kts | 301° |
| 2026-05-07 17:37 | 42.72613 | -8.00725 | 35875 ft | 456 kts | 301° |
| 2026-05-07 17:38 | 42.76104 | -8.07930 | 35880 ft | 455 kts | 301° |
| 2026-05-07 17:38 | 42.79601 | -8.15163 | 35876 ft | 455 kts | 301° |
| 2026-05-07 17:39 | 42.83066 | -8.22347 | 35879 ft | 455 kts | 301° |
| 2026-05-07 17:39 | 42.86524 | -8.29536 | 35876 ft | 455 kts | 301° |
| 2026-05-07 17:40 | 42.89998 | -8.36774 | 35879 ft | 455 kts | 301° |
| 2026-05-07 17:40 | 42.93078 | -8.44269 | 35888 ft | 455 kts | 290° |
| 2026-05-07 17:41 | 42.95329 | -8.52361 | 35879 ft | 455 kts | 288° |